sensor_id;sensor_type;location;lat;lon;timestamp;temperature;humidity
26186;DHT22;20067;48.764;9.176;2023-06-24T00:01:30;19.70;78.70
26186;DHT22;20067;48.764;9.176;2023-06-24T00:03:57;19.40;80.30
26186;DHT22;20067;48.764;9.176;2023-06-24T00:06:24;19.40;80.50
26186;DHT22;20067;48.764;9.176;2023-06-24T00:08:52;19.60;79.30
26186;DHT22;20067;48.764;9.176;2023-06-24T00:11:27;19.60;79.40
26186;DHT22;20067;48.764;9.176;2023-06-24T00:13:53;19.20;80.60
26186;DHT22;20067;48.764;9.176;2023-06-24T00:16:18;18.80;81.60
26186;DHT22;20067;48.764;9.176;2023-06-24T00:18:51;18.70;81.60
26186;DHT22;20067;48.764;9.176;2023-06-24T00:21:19;18.90;82.30
26186;DHT22;20067;48.764;9.176;2023-06-24T00:23:45;18.90;82.60
26186;DHT22;20067;48.764;9.176;2023-06-24T00:26:15;19.00;82.30
26186;DHT22;20067;48.764;9.176;2023-06-24T00:28:42;19.00;81.90
26186;DHT22;20067;48.764;9.176;2023-06-24T00:31:08;19.00;81.90
26186;DHT22;20067;48.764;9.176;2023-06-24T00:33:36;18.80;82.10
26186;DHT22;20067;48.764;9.176;2023-06-24T00:36:02;18.70;82.40
26186;DHT22;20067;48.764;9.176;2023-06-24T00:38:30;18.90;81.80
26186;DHT22;20067;48.764;9.176;2023-06-24T00:40:58;19.00;81.60
26186;DHT22;20067;48.764;9.176;2023-06-24T00:43:24;18.70;82.60
26186;DHT22;20067;48.764;9.176;2023-06-24T00:45:51;18.80;83.00
26186;DHT22;20067;48.764;9.176;2023-06-24T00:48:19;18.70;83.00
26186;DHT22;20067;48.764;9.176;2023-06-24T00:50:45;18.60;83.70
26186;DHT22;20067;48.764;9.176;2023-06-24T00:53:11;18.70;83.50
26186;DHT22;20067;48.764;9.176;2023-06-24T00:55:37;18.80;83.20
26186;DHT22;20067;48.764;9.176;2023-06-24T00:58:04;18.70;82.60
26186;DHT22;20067;48.764;9.176;2023-06-24T01:00:30;18.50;83.40
26186;DHT22;20067;48.764;9.176;2023-06-24T01:02:58;18.20;84.70
26186;DHT22;20067;48.764;9.176;2023-06-24T01:05:25;18.20;84.50
26186;DHT22;20067;48.764;9.176;2023-06-24T01:07:52;18.20;84.90
26186;DHT22;20067;48.764;9.176;2023-06-24T01:10:21;18.30;84.50
26186;DHT22;20067;48.764;9.176;2023-06-24T01:12:47;18.70;83.40
26186;DHT22;20067;48.764;9.176;2023-06-24T01:15:13;18.60;83.80
26186;DHT22;20067;48.764;9.176;2023-06-24T01:17:48;18.40;84.10
26186;DHT22;20067;48.764;9.176;2023-06-24T01:23:14;18.40;84.10
26186;DHT22;20067;48.764;9.176;2023-06-24T01:31:41;18.60;83.50
26186;DHT22;20067;48.764;9.176;2023-06-24T01:34:28;18.50;83.50
26186;DHT22;20067;48.764;9.176;2023-06-24T01:39:35;18.30;85.10
26186;DHT22;20067;48.764;9.176;2023-06-24T01:42:08;18.50;84.50
26186;DHT22;20067;48.764;9.176;2023-06-24T01:44:35;18.80;83.60
26186;DHT22;20067;48.764;9.176;2023-06-24T01:47:04;18.60;83.60
26186;DHT22;20067;48.764;9.176;2023-06-24T01:49:32;18.30;84.30
26186;DHT22;20067;48.764;9.176;2023-06-24T01:51:59;18.30;84.60
26186;DHT22;20067;48.764;9.176;2023-06-24T01:54:26;17.80;85.90
26186;DHT22;20067;48.764;9.176;2023-06-24T01:56:55;17.90;86.30
26186;DHT22;20067;48.764;9.176;2023-06-24T01:59:22;17.90;86.20
26186;DHT22;20067;48.764;9.176;2023-06-24T02:01:48;17.90;85.90
26186;DHT22;20067;48.764;9.176;2023-06-24T02:04:18;17.70;86.50
26186;DHT22;20067;48.764;9.176;2023-06-24T02:06:44;17.70;86.60
26186;DHT22;20067;48.764;9.176;2023-06-24T02:09:12;17.80;86.40
26186;DHT22;20067;48.764;9.176;2023-06-24T02:11:39;17.90;86.00
26186;DHT22;20067;48.764;9.176;2023-06-24T02:14:07;18.10;86.10
26186;DHT22;20067;48.764;9.176;2023-06-24T02:16:35;17.90;85.80
26186;DHT22;20067;48.764;9.176;2023-06-24T02:19:02;17.80;86.60
26186;DHT22;20067;48.764;9.176;2023-06-24T02:21:31;17.50;87.00
26186;DHT22;20067;48.764;9.176;2023-06-24T02:23:57;17.70;87.10
26186;DHT22;20067;48.764;9.176;2023-06-24T02:26:23;17.90;86.50
26186;DHT22;20067;48.764;9.176;2023-06-24T02:28:52;17.90;86.50
26186;DHT22;20067;48.764;9.176;2023-06-24T02:31:18;18.20;85.70
26186;DHT22;20067;48.764;9.176;2023-06-24T02:33:44;17.90;86.00
26186;DHT22;20067;48.764;9.176;2023-06-24T02:36:10;17.90;86.40
26186;DHT22;20067;48.764;9.176;2023-06-24T02:38:36;17.70;86.90
26186;DHT22;20067;48.764;9.176;2023-06-24T02:41:02;17.50;87.60
26186;DHT22;20067;48.764;9.176;2023-06-24T02:43:30;17.50;88.10
26186;DHT22;20067;48.764;9.176;2023-06-24T02:45:57;17.60;87.60
26186;DHT22;20067;48.764;9.176;2023-06-24T02:48:23;17.50;88.00
26186;DHT22;20067;48.764;9.176;2023-06-24T02:50:50;17.60;87.50
26186;DHT22;20067;48.764;9.176;2023-06-24T02:53:17;17.80;87.20
26186;DHT22;20067;48.764;9.176;2023-06-24T02:55:43;17.80;87.20
26186;DHT22;20067;48.764;9.176;2023-06-24T02:58:09;17.60;87.40
26186;DHT22;20067;48.764;9.176;2023-06-24T03:00:38;17.50;88.10
26186;DHT22;20067;48.764;9.176;2023-06-24T03:03:05;17.80;87.10
26186;DHT22;20067;48.764;9.176;2023-06-24T03:05:31;17.70;87.30
26186;DHT22;20067;48.764;9.176;2023-06-24T03:07:58;17.70;87.30
26186;DHT22;20067;48.764;9.176;2023-06-24T03:10:27;17.70;87.40
26186;DHT22;20067;48.764;9.176;2023-06-24T03:12:53;17.70;87.40
26186;DHT22;20067;48.764;9.176;2023-06-24T03:15:19;17.50;87.90
26186;DHT22;20067;48.764;9.176;2023-06-24T03:17:45;17.40;88.20
26186;DHT22;20067;48.764;9.176;2023-06-24T03:20:11;17.30;88.30
26186;DHT22;20067;48.764;9.176;2023-06-24T03:22:37;17.20;88.90
26186;DHT22;20067;48.764;9.176;2023-06-24T03:25:03;17.10;89.20
26186;DHT22;20067;48.764;9.176;2023-06-24T03:27:29;16.90;90.20
26186;DHT22;20067;48.764;9.176;2023-06-24T03:29:56;16.90;90.40
26186;DHT22;20067;48.764;9.176;2023-06-24T03:32:22;17.20;89.40
26186;DHT22;20067;48.764;9.176;2023-06-24T03:34:48;17.50;88.80
26186;DHT22;20067;48.764;9.176;2023-06-24T03:37:13;17.60;88.20
26186;DHT22;20067;48.764;9.176;2023-06-24T03:39:39;17.60;88.30
26186;DHT22;20067;48.764;9.176;2023-06-24T03:42:05;17.30;89.10
26186;DHT22;20067;48.764;9.176;2023-06-24T03:44:30;17.30;89.10
26186;DHT22;20067;48.764;9.176;2023-06-24T03:46:56;17.30;88.90
26186;DHT22;20067;48.764;9.176;2023-06-24T03:49:22;17.20;89.30
26186;DHT22;20067;48.764;9.176;2023-06-24T03:51:47;17.00;89.80
26186;DHT22;20067;48.764;9.176;2023-06-24T03:54:13;16.90;90.20
26186;DHT22;20067;48.764;9.176;2023-06-24T03:56:38;16.70;90.60
26186;DHT22;20067;48.764;9.176;2023-06-24T03:59:04;16.80;90.20
26186;DHT22;20067;48.764;9.176;2023-06-24T04:01:30;17.20;88.80
26186;DHT22;20067;48.764;9.176;2023-06-24T04:03:58;17.30;88.20
26186;DHT22;20067;48.764;9.176;2023-06-24T04:06:23;17.30;88.50
26186;DHT22;20067;48.764;9.176;2023-06-24T04:08:49;17.60;87.50
26186;DHT22;20067;48.764;9.176;2023-06-24T04:11:17;17.40;88.30
26186;DHT22;20067;48.764;9.176;2023-06-24T04:13:44;17.30;88.50
26186;DHT22;20067;48.764;9.176;2023-06-24T04:16:09;17.20;88.70
26186;DHT22;20067;48.764;9.176;2023-06-24T04:18:35;17.40;88.80
26186;DHT22;20067;48.764;9.176;2023-06-24T04:21:05;17.40;88.50
26186;DHT22;20067;48.764;9.176;2023-06-24T04:23:32;17.40;88.20
26186;DHT22;20067;48.764;9.176;2023-06-24T04:25:57;17.40;88.50
26186;DHT22;20067;48.764;9.176;2023-06-24T04:28:23;17.50;88.60
26186;DHT22;20067;48.764;9.176;2023-06-24T04:30:49;17.70;87.80
26186;DHT22;20067;48.764;9.176;2023-06-24T04:33:14;17.70;87.30
26186;DHT22;20067;48.764;9.176;2023-06-24T04:35:40;17.60;87.70
26186;DHT22;20067;48.764;9.176;2023-06-24T04:38:05;17.50;88.10
26186;DHT22;20067;48.764;9.176;2023-06-24T04:40:31;17.50;88.00
26186;DHT22;20067;48.764;9.176;2023-06-24T04:42:56;17.50;88.10
26186;DHT22;20067;48.764;9.176;2023-06-24T04:45:22;17.60;88.20
26186;DHT22;20067;48.764;9.176;2023-06-24T04:47:48;17.70;88.20
26186;DHT22;20067;48.764;9.176;2023-06-24T04:50:14;17.90;87.60
26186;DHT22;20067;48.764;9.176;2023-06-24T04:52:40;18.00;87.60
26186;DHT22;20067;48.764;9.176;2023-06-24T04:55:05;18.20;87.20
26186;DHT22;20067;48.764;9.176;2023-06-24T04:57:32;18.30;86.70
26186;DHT22;20067;48.764;9.176;2023-06-24T04:59:59;18.20;86.60
26186;DHT22;20067;48.764;9.176;2023-06-24T05:02:25;17.90;87.00
26186;DHT22;20067;48.764;9.176;2023-06-24T05:04:51;17.90;87.70
26186;DHT22;20067;48.764;9.176;2023-06-24T05:07:17;18.20;87.60
26186;DHT22;20067;48.764;9.176;2023-06-24T05:09:45;18.70;86.10
26186;DHT22;20067;48.764;9.176;2023-06-24T05:12:10;18.60;84.80
26186;DHT22;20067;48.764;9.176;2023-06-24T05:14:36;18.30;86.60
26186;DHT22;20067;48.764;9.176;2023-06-24T05:17:03;18.50;85.90
26186;DHT22;20067;48.764;9.176;2023-06-24T05:19:29;18.60;85.30
26186;DHT22;20067;48.764;9.176;2023-06-24T05:21:55;18.50;86.00
26186;DHT22;20067;48.764;9.176;2023-06-24T05:24:20;18.40;86.60
26186;DHT22;20067;48.764;9.176;2023-06-24T05:26:49;18.60;85.60
26186;DHT22;20067;48.764;9.176;2023-06-24T05:29:16;18.70;85.50
26186;DHT22;20067;48.764;9.176;2023-06-24T05:31:42;18.90;84.60
26186;DHT22;20067;48.764;9.176;2023-06-24T05:34:08;19.10;83.60
26186;DHT22;20067;48.764;9.176;2023-06-24T05:36:33;18.90;84.70
26186;DHT22;20067;48.764;9.176;2023-06-24T05:38:59;19.10;83.30
26186;DHT22;20067;48.764;9.176;2023-06-24T05:41:25;19.10;83.10
26186;DHT22;20067;48.764;9.176;2023-06-24T05:44:02;19.30;82.70
26186;DHT22;20067;48.764;9.176;2023-06-24T05:46:28;19.50;82.10
26186;DHT22;20067;48.764;9.176;2023-06-24T05:48:54;19.60;81.50
26186;DHT22;20067;48.764;9.176;2023-06-24T05:51:19;19.50;81.60
26186;DHT22;20067;48.764;9.176;2023-06-24T05:53:45;19.60;81.40
26186;DHT22;20067;48.764;9.176;2023-06-24T05:56:11;19.60;81.00
26186;DHT22;20067;48.764;9.176;2023-06-24T05:58:36;19.70;80.70
26186;DHT22;20067;48.764;9.176;2023-06-24T06:01:02;19.60;80.80
26186;DHT22;20067;48.764;9.176;2023-06-24T06:03:28;19.70;80.90
26186;DHT22;20067;48.764;9.176;2023-06-24T06:05:54;19.70;80.90
26186;DHT22;20067;48.764;9.176;2023-06-24T06:08:19;19.90;79.60
26186;DHT22;20067;48.764;9.176;2023-06-24T06:10:45;20.00;80.00
26186;DHT22;20067;48.764;9.176;2023-06-24T06:13:11;20.10;79.10
26186;DHT22;20067;48.764;9.176;2023-06-24T06:15:37;20.10;79.80
26186;DHT22;20067;48.764;9.176;2023-06-24T06:18:03;20.10;79.00
26186;DHT22;20067;48.764;9.176;2023-06-24T06:20:28;20.20;79.60
26186;DHT22;20067;48.764;9.176;2023-06-24T06:22:54;20.40;78.70
26186;DHT22;20067;48.764;9.176;2023-06-24T06:25:20;20.50;78.40
26186;DHT22;20067;48.764;9.176;2023-06-24T06:27:45;20.50;78.40
26186;DHT22;20067;48.764;9.176;2023-06-24T06:30:11;20.60;78.70
26186;DHT22;20067;48.764;9.176;2023-06-24T06:32:37;20.80;78.20
26186;DHT22;20067;48.764;9.176;2023-06-24T06:35:03;20.80;77.80
26186;DHT22;20067;48.764;9.176;2023-06-24T06:37:29;20.90;77.80
26186;DHT22;20067;48.764;9.176;2023-06-24T06:39:55;20.80;76.40
26186;DHT22;20067;48.764;9.176;2023-06-24T06:42:20;20.90;78.10
26186;DHT22;20067;48.764;9.176;2023-06-24T06:44:46;21.20;77.30
26186;DHT22;20067;48.764;9.176;2023-06-24T06:47:12;21.30;75.60
26186;DHT22;20067;48.764;9.176;2023-06-24T06:49:37;21.40;75.50
26186;DHT22;20067;48.764;9.176;2023-06-24T06:52:05;21.40;74.30
26186;DHT22;20067;48.764;9.176;2023-06-24T06:54:30;21.40;73.00
26186;DHT22;20067;48.764;9.176;2023-06-24T06:57:01;21.40;73.10
26186;DHT22;20067;48.764;9.176;2023-06-24T06:59:26;21.40;73.00
26186;DHT22;20067;48.764;9.176;2023-06-24T07:01:52;21.50;72.40
26186;DHT22;20067;48.764;9.176;2023-06-24T07:04:18;21.60;72.10
26186;DHT22;20067;48.764;9.176;2023-06-24T07:06:43;21.70;73.10
26186;DHT22;20067;48.764;9.176;2023-06-24T07:09:09;21.90;71.50
26186;DHT22;20067;48.764;9.176;2023-06-24T07:11:34;21.90;71.90
26186;DHT22;20067;48.764;9.176;2023-06-24T07:14:00;22.00;71.80
26186;DHT22;20067;48.764;9.176;2023-06-24T07:16:26;22.10;71.20
26186;DHT22;20067;48.764;9.176;2023-06-24T07:18:51;22.00;71.60
26186;DHT22;20067;48.764;9.176;2023-06-24T07:21:17;22.10;71.50
26186;DHT22;20067;48.764;9.176;2023-06-24T07:23:42;22.30;69.80
26186;DHT22;20067;48.764;9.176;2023-06-24T07:26:08;22.40;69.30
26186;DHT22;20067;48.764;9.176;2023-06-24T07:28:34;22.40;69.40
26186;DHT22;20067;48.764;9.176;2023-06-24T07:30:59;22.50;70.60
26186;DHT22;20067;48.764;9.176;2023-06-24T07:33:25;22.60;69.20
26186;DHT22;20067;48.764;9.176;2023-06-24T07:35:51;22.70;68.40
26186;DHT22;20067;48.764;9.176;2023-06-24T07:38:17;22.70;68.40
26186;DHT22;20067;48.764;9.176;2023-06-24T07:40:43;22.90;69.20
26186;DHT22;20067;48.764;9.176;2023-06-24T07:43:09;23.00;68.20
26186;DHT22;20067;48.764;9.176;2023-06-24T07:45:34;23.00;68.00
26186;DHT22;20067;48.764;9.176;2023-06-24T07:48:00;23.20;68.20
26186;DHT22;20067;48.764;9.176;2023-06-24T07:50:25;23.40;68.10
26186;DHT22;20067;48.764;9.176;2023-06-24T07:52:51;23.60;69.90
26186;DHT22;20067;48.764;9.176;2023-06-24T07:55:17;23.90;67.20
26186;DHT22;20067;48.764;9.176;2023-06-24T07:57:46;23.80;67.00
26186;DHT22;20067;48.764;9.176;2023-06-24T08:00:13;23.80;67.90
26186;DHT22;20067;48.764;9.176;2023-06-24T08:02:38;23.80;66.30
26186;DHT22;20067;48.764;9.176;2023-06-24T08:05:04;24.10;69.30
26186;DHT22;20067;48.764;9.176;2023-06-24T08:07:30;24.30;67.60
26186;DHT22;20067;48.764;9.176;2023-06-24T08:09:55;24.00;68.50
26186;DHT22;20067;48.764;9.176;2023-06-24T08:12:21;24.00;70.80
26186;DHT22;20067;48.764;9.176;2023-06-24T08:14:47;24.30;68.00
26186;DHT22;20067;48.764;9.176;2023-06-24T08:17:12;24.50;67.70
26186;DHT22;20067;48.764;9.176;2023-06-24T08:19:38;24.70;68.20
26186;DHT22;20067;48.764;9.176;2023-06-24T08:22:04;25.10;67.80
26186;DHT22;20067;48.764;9.176;2023-06-24T08:24:30;25.30;64.50
26186;DHT22;20067;48.764;9.176;2023-06-24T08:26:56;26.00;65.80
26186;DHT22;20067;48.764;9.176;2023-06-24T08:29:22;25.90;65.30
26186;DHT22;20067;48.764;9.176;2023-06-24T08:31:47;26.40;66.30
26186;DHT22;20067;48.764;9.176;2023-06-24T08:34:13;26.70;60.20
26186;DHT22;20067;48.764;9.176;2023-06-24T08:36:39;27.40;62.50
26186;DHT22;20067;48.764;9.176;2023-06-24T08:39:04;27.10;59.60
26186;DHT22;20067;48.764;9.176;2023-06-24T08:41:30;26.90;59.90
26186;DHT22;20067;48.764;9.176;2023-06-24T08:43:56;27.50;60.30
26186;DHT22;20067;48.764;9.176;2023-06-24T08:46:24;28.10;59.80
26186;DHT22;20067;48.764;9.176;2023-06-24T08:51:40;27.80;57.40
26186;DHT22;20067;48.764;9.176;2023-06-24T08:54:09;27.10;57.90
26186;DHT22;20067;48.764;9.176;2023-06-24T08:56:37;26.50;58.50
26186;DHT22;20067;48.764;9.176;2023-06-24T08:59:08;26.10;59.40
26186;DHT22;20067;48.764;9.176;2023-06-24T09:01:35;25.70;59.60
26186;DHT22;20067;48.764;9.176;2023-06-24T09:04:00;26.60;58.90
26186;DHT22;20067;48.764;9.176;2023-06-24T09:06:26;26.90;60.00
26186;DHT22;20067;48.764;9.176;2023-06-24T09:08:53;27.50;60.30
26186;DHT22;20067;48.764;9.176;2023-06-24T09:11:28;28.00;55.00
26186;DHT22;20067;48.764;9.176;2023-06-24T09:13:58;27.00;57.00
26186;DHT22;20067;48.764;9.176;2023-06-24T09:16:24;26.00;58.50
26186;DHT22;20067;48.764;9.176;2023-06-24T09:18:52;25.80;61.50
26186;DHT22;20067;48.764;9.176;2023-06-24T09:21:24;26.50;57.50
26186;DHT22;20067;48.764;9.176;2023-06-24T09:23:54;26.90;57.10
26186;DHT22;20067;48.764;9.176;2023-06-24T09:26:27;26.50;58.20
26186;DHT22;20067;48.764;9.176;2023-06-24T09:28:53;27.40;56.00
26186;DHT22;20067;48.764;9.176;2023-06-24T09:31:20;28.70;55.90
26186;DHT22;20067;48.764;9.176;2023-06-24T09:33:46;28.00;54.10
26186;DHT22;20067;48.764;9.176;2023-06-24T09:36:13;27.70;54.50
26186;DHT22;20067;48.764;9.176;2023-06-24T09:38:44;28.20;55.40
26186;DHT22;20067;48.764;9.176;2023-06-24T09:41:11;28.60;52.50
26186;DHT22;20067;48.764;9.176;2023-06-24T09:43:38;28.90;52.70
26186;DHT22;20067;48.764;9.176;2023-06-24T09:46:07;29.60;49.80
26186;DHT22;20067;48.764;9.176;2023-06-24T09:48:33;30.40;49.80
26186;DHT22;20067;48.764;9.176;2023-06-24T09:51:04;31.10;49.40
26186;DHT22;20067;48.764;9.176;2023-06-24T09:53:31;29.90;50.00
26186;DHT22;20067;48.764;9.176;2023-06-24T09:56:00;30.10;51.30
26186;DHT22;20067;48.764;9.176;2023-06-24T09:58:28;29.70;48.70
26186;DHT22;20067;48.764;9.176;2023-06-24T10:00:54;29.80;50.20
26186;DHT22;20067;48.764;9.176;2023-06-24T10:03:21;29.80;48.20
26186;DHT22;20067;48.764;9.176;2023-06-24T10:05:47;29.10;49.00
26186;DHT22;20067;48.764;9.176;2023-06-24T10:08:14;28.50;50.90
26186;DHT22;20067;48.764;9.176;2023-06-24T10:10:40;28.20;52.00
26186;DHT22;20067;48.764;9.176;2023-06-24T10:13:05;29.20;57.30
26186;DHT22;20067;48.764;9.176;2023-06-24T10:15:32;29.70;49.50
26186;DHT22;20067;48.764;9.176;2023-06-24T10:18:02;29.40;49.70
26186;DHT22;20067;48.764;9.176;2023-06-24T10:20:28;28.80;50.30
26186;DHT22;20067;48.764;9.176;2023-06-24T10:22:54;28.80;51.40
26186;DHT22;20067;48.764;9.176;2023-06-24T10:25:20;28.60;51.30
26186;DHT22;20067;48.764;9.176;2023-06-24T10:27:53;28.10;51.90
26186;DHT22;20067;48.764;9.176;2023-06-24T10:30:20;27.80;55.40
26186;DHT22;20067;48.764;9.176;2023-06-24T10:32:51;28.50;52.90
26186;DHT22;20067;48.764;9.176;2023-06-24T10:35:28;28.00;52.20
26186;DHT22;20067;48.764;9.176;2023-06-24T10:38:01;27.30;53.20
26186;DHT22;20067;48.764;9.176;2023-06-24T10:40:38;26.90;55.60
26186;DHT22;20067;48.764;9.176;2023-06-24T10:45:58;28.60;55.40
26186;DHT22;20067;48.764;9.176;2023-06-24T10:48:24;28.70;54.70
26186;DHT22;20067;48.764;9.176;2023-06-24T10:50:50;28.30;51.90
26186;DHT22;20067;48.764;9.176;2023-06-24T10:53:16;27.90;54.00
26186;DHT22;20067;48.764;9.176;2023-06-24T10:55:44;27.90;51.00
26186;DHT22;20067;48.764;9.176;2023-06-24T10:58:12;27.20;50.90
26186;DHT22;20067;48.764;9.176;2023-06-24T11:00:39;27.10;50.70
26186;DHT22;20067;48.764;9.176;2023-06-24T11:03:16;27.20;51.40
26186;DHT22;20067;48.764;9.176;2023-06-24T11:05:44;26.60;51.90
26186;DHT22;20067;48.764;9.176;2023-06-24T11:08:10;26.30;52.50
26186;DHT22;20067;48.764;9.176;2023-06-24T11:10:47;26.60;52.90
26186;DHT22;20067;48.764;9.176;2023-06-24T11:13:13;28.10;51.90
26186;DHT22;20067;48.764;9.176;2023-06-24T11:15:39;29.90;47.90
26186;DHT22;20067;48.764;9.176;2023-06-24T11:18:11;29.40;47.60
26186;DHT22;20067;48.764;9.176;2023-06-24T11:20:38;31.20;47.80
26186;DHT22;20067;48.764;9.176;2023-06-24T11:23:08;33.20;42.70
26186;DHT22;20067;48.764;9.176;2023-06-24T11:25:42;34.20;41.80
26186;DHT22;20067;48.764;9.176;2023-06-24T11:28:18;35.60;44.00
26186;DHT22;20067;48.764;9.176;2023-06-24T11:30:44;35.60;40.10
26186;DHT22;20067;48.764;9.176;2023-06-24T11:33:10;35.70;43.40
26186;DHT22;20067;48.764;9.176;2023-06-24T11:35:35;35.00;41.20
26186;DHT22;20067;48.764;9.176;2023-06-24T11:38:02;35.10;39.30
26186;DHT22;20067;48.764;9.176;2023-06-24T11:40:30;34.70;38.60
26186;DHT22;20067;48.764;9.176;2023-06-24T11:42:56;32.40;40.20
26186;DHT22;20067;48.764;9.176;2023-06-24T11:45:22;31.80;40.90
26186;DHT22;20067;48.764;9.176;2023-06-24T11:47:47;33.90;40.20
26186;DHT22;20067;48.764;9.176;2023-06-24T11:50:17;34.00;38.40
26186;DHT22;20067;48.764;9.176;2023-06-24T11:52:50;35.00;39.40
26186;DHT22;20067;48.764;9.176;2023-06-24T11:55:23;34.40;39.40
26186;DHT22;20067;48.764;9.176;2023-06-24T11:57:56;34.40;40.10
26186;DHT22;20067;48.764;9.176;2023-06-24T12:00:27;35.60;38.50
26186;DHT22;20067;48.764;9.176;2023-06-24T12:02:54;36.30;37.50
26186;DHT22;20067;48.764;9.176;2023-06-24T12:05:23;35.20;39.50
26186;DHT22;20067;48.764;9.176;2023-06-24T12:07:54;33.60;40.00
26186;DHT22;20067;48.764;9.176;2023-06-24T12:10:20;33.50;43.50
26186;DHT22;20067;48.764;9.176;2023-06-24T12:12:45;34.70;40.30
26186;DHT22;20067;48.764;9.176;2023-06-24T12:15:12;33.30;42.70
26186;DHT22;20067;48.764;9.176;2023-06-24T12:17:38;33.70;41.10
26186;DHT22;20067;48.764;9.176;2023-06-24T12:20:04;34.80;38.90
26186;DHT22;20067;48.764;9.176;2023-06-24T12:22:30;35.60;37.70
26186;DHT22;20067;48.764;9.176;2023-06-24T12:24:56;36.80;36.20
26186;DHT22;20067;48.764;9.176;2023-06-24T12:27:21;35.30;37.80
26186;DHT22;20067;48.764;9.176;2023-06-24T12:29:47;36.20;37.10
26186;DHT22;20067;48.764;9.176;2023-06-24T12:32:12;36.20;38.50
26186;DHT22;20067;48.764;9.176;2023-06-24T12:34:38;34.80;39.10
26186;DHT22;20067;48.764;9.176;2023-06-24T12:37:04;34.60;41.30
26186;DHT22;20067;48.764;9.176;2023-06-24T12:39:29;36.50;37.90
26186;DHT22;20067;48.764;9.176;2023-06-24T12:41:55;38.10;36.40
26186;DHT22;20067;48.764;9.176;2023-06-24T12:44:21;37.10;36.40
26186;DHT22;20067;48.764;9.176;2023-06-24T12:46:46;35.80;39.00
26186;DHT22;20067;48.764;9.176;2023-06-24T12:49:12;35.90;37.60
26186;DHT22;20067;48.764;9.176;2023-06-24T12:51:37;35.40;38.80
26186;DHT22;20067;48.764;9.176;2023-06-24T12:54:03;35.70;38.40
26186;DHT22;20067;48.764;9.176;2023-06-24T12:56:29;34.20;39.10
26186;DHT22;20067;48.764;9.176;2023-06-24T12:58:55;35.30;40.40
26186;DHT22;20067;48.764;9.176;2023-06-24T13:01:20;36.30;38.20
26186;DHT22;20067;48.764;9.176;2023-06-24T13:03:46;36.70;39.20
26186;DHT22;20067;48.764;9.176;2023-06-24T13:06:11;37.30;36.00
26186;DHT22;20067;48.764;9.176;2023-06-24T13:08:37;36.20;37.00
26186;DHT22;20067;48.764;9.176;2023-06-24T13:11:02;36.70;36.80
26186;DHT22;20067;48.764;9.176;2023-06-24T13:13:28;36.40;36.00
26186;DHT22;20067;48.764;9.176;2023-06-24T13:15:54;36.60;37.80
26186;DHT22;20067;48.764;9.176;2023-06-24T13:18:19;37.10;36.80
26186;DHT22;20067;48.764;9.176;2023-06-24T13:20:45;37.50;35.70
26186;DHT22;20067;48.764;9.176;2023-06-24T13:23:11;36.20;36.10
26186;DHT22;20067;48.764;9.176;2023-06-24T13:25:37;35.60;37.20
26186;DHT22;20067;48.764;9.176;2023-06-24T13:28:02;36.90;37.40
26186;DHT22;20067;48.764;9.176;2023-06-24T13:30:28;37.50;33.80
26186;DHT22;20067;48.764;9.176;2023-06-24T13:32:54;35.10;36.00
26186;DHT22;20067;48.764;9.176;2023-06-24T13:35:20;35.80;36.40
26186;DHT22;20067;48.764;9.176;2023-06-24T13:37:45;36.10;36.40
26186;DHT22;20067;48.764;9.176;2023-06-24T13:40:11;36.40;36.30
26186;DHT22;20067;48.764;9.176;2023-06-24T13:42:37;36.00;36.80
26186;DHT22;20067;48.764;9.176;2023-06-24T13:45:03;34.70;36.70
26186;DHT22;20067;48.764;9.176;2023-06-24T13:47:29;34.40;39.80
26186;DHT22;20067;48.764;9.176;2023-06-24T13:49:55;35.60;36.70
26186;DHT22;20067;48.764;9.176;2023-06-24T13:52:20;36.80;36.30
26186;DHT22;20067;48.764;9.176;2023-06-24T13:54:47;36.20;35.40
26186;DHT22;20067;48.764;9.176;2023-06-24T13:57:13;38.00;36.60
26186;DHT22;20067;48.764;9.176;2023-06-24T13:59:39;37.20;35.70
26186;DHT22;20067;48.764;9.176;2023-06-24T14:02:05;36.80;35.80
26186;DHT22;20067;48.764;9.176;2023-06-24T14:04:30;36.20;37.30
26186;DHT22;20067;48.764;9.176;2023-06-24T14:06:56;35.50;37.70
26186;DHT22;20067;48.764;9.176;2023-06-24T14:09:22;34.80;37.70
26186;DHT22;20067;48.764;9.176;2023-06-24T14:11:47;35.70;37.70
26186;DHT22;20067;48.764;9.176;2023-06-24T14:14:13;35.40;37.60
26186;DHT22;20067;48.764;9.176;2023-06-24T14:16:38;35.50;37.70
26186;DHT22;20067;48.764;9.176;2023-06-24T14:19:04;34.90;38.40
26186;DHT22;20067;48.764;9.176;2023-06-24T14:21:30;34.20;38.70
26186;DHT22;20067;48.764;9.176;2023-06-24T14:23:57;33.70;39.40
26186;DHT22;20067;48.764;9.176;2023-06-24T14:26:23;32.80;42.10
26186;DHT22;20067;48.764;9.176;2023-06-24T14:28:48;33.10;40.40
26186;DHT22;20067;48.764;9.176;2023-06-24T14:31:14;32.40;41.70
26186;DHT22;20067;48.764;9.176;2023-06-24T14:33:40;31.90;42.70
26186;DHT22;20067;48.764;9.176;2023-06-24T14:36:06;31.40;43.30
26186;DHT22;20067;48.764;9.176;2023-06-24T14:38:32;30.80;44.00
26186;DHT22;20067;48.764;9.176;2023-06-24T14:40:57;30.90;45.60
26186;DHT22;20067;48.764;9.176;2023-06-24T14:43:23;31.00;44.80
26186;DHT22;20067;48.764;9.176;2023-06-24T14:45:49;31.20;43.80
26186;DHT22;20067;48.764;9.176;2023-06-24T14:48:14;31.60;44.10
26186;DHT22;20067;48.764;9.176;2023-06-24T14:50:40;31.30;44.80
26186;DHT22;20067;48.764;9.176;2023-06-24T14:53:06;30.90;44.20
26186;DHT22;20067;48.764;9.176;2023-06-24T14:55:31;30.70;44.70
26186;DHT22;20067;48.764;9.176;2023-06-24T14:57:57;30.60;44.80
26186;DHT22;20067;48.764;9.176;2023-06-24T15:00:23;30.80;46.00
26186;DHT22;20067;48.764;9.176;2023-06-24T15:02:49;30.60;44.00
26186;DHT22;20067;48.764;9.176;2023-06-24T15:05:14;30.80;44.50
26186;DHT22;20067;48.764;9.176;2023-06-24T15:07:40;30.80;44.40
26186;DHT22;20067;48.764;9.176;2023-06-24T15:10:06;30.30;45.20
26186;DHT22;20067;48.764;9.176;2023-06-24T15:12:32;29.90;45.50
26186;DHT22;20067;48.764;9.176;2023-06-24T15:14:59;30.10;45.70
26186;DHT22;20067;48.764;9.176;2023-06-24T15:17:25;30.40;45.20
26186;DHT22;20067;48.764;9.176;2023-06-24T15:19:51;30.60;45.60
26186;DHT22;20067;48.764;9.176;2023-06-24T15:22:17;29.90;45.10
26186;DHT22;20067;48.764;9.176;2023-06-24T15:24:43;29.80;45.60
26186;DHT22;20067;48.764;9.176;2023-06-24T15:27:10;30.10;45.80
26186;DHT22;20067;48.764;9.176;2023-06-24T15:29:35;30.00;45.70
26186;DHT22;20067;48.764;9.176;2023-06-24T15:32:01;29.90;46.90
26186;DHT22;20067;48.764;9.176;2023-06-24T15:34:27;30.00;46.00
26186;DHT22;20067;48.764;9.176;2023-06-24T15:36:53;30.10;45.80
26186;DHT22;20067;48.764;9.176;2023-06-24T15:39:19;30.20;45.10
26186;DHT22;20067;48.764;9.176;2023-06-24T15:41:48;30.10;45.70
26186;DHT22;20067;48.764;9.176;2023-06-24T15:44:16;30.20;46.10